createdAt,value
2023-01-19T00:01:53.467Z,95978.47
2023-01-19T00:04:20.091Z,95971.69
2023-01-19T00:06:46.748Z,95977.75
2023-01-19T00:09:13.375Z,95967.25
2023-01-19T00:11:40.114Z,95968.72
2023-01-19T00:14:06.754Z,95969.06
2023-01-19T00:16:33.420Z,95966.56
2023-01-19T00:19:00.177Z,95973.25
2023-01-19T00:21:26.895Z,95965.53
2023-01-19T00:23:53.520Z,95971.25
2023-01-19T00:26:20.194Z,95978.56
2023-01-19T00:28:46.821Z,95973.09
2023-01-19T00:31:13.476Z,95983.00
2023-01-19T00:33:40.121Z,95987.28
2023-01-19T00:36:06.984Z,95984.81
2023-01-19T00:38:33.645Z,95986.25
2023-01-19T00:41:00.464Z,95979.47
2023-01-19T00:43:27.101Z,95977.59
2023-01-19T00:45:53.755Z,95986.72
2023-01-19T00:48:20.428Z,95978.28
2023-01-19T00:50:47.660Z,95978.31
2023-01-19T00:53:14.292Z,95984.50
2023-01-19T00:55:40.924Z,95984.75
2023-01-19T00:58:07.577Z,95982.38
2023-01-19T01:00:34.217Z,95978.94
2023-01-19T01:03:01.280Z,95982.38
2023-01-19T01:05:28.096Z,95974.78
2023-01-19T01:07:54.740Z,95983.13
2023-01-19T01:10:23.927Z,95989.53
2023-01-19T01:12:56.141Z,95996.69
2023-01-19T01:15:24.989Z,95990.38
2023-01-19T01:17:51.615Z,95993.25
2023-01-19T01:20:22.626Z,95999.78
2023-01-19T01:22:51.895Z,95998.13
2023-01-19T01:25:19.875Z,96006.00
2023-01-19T01:27:46.542Z,96005.03
2023-01-19T01:30:13.623Z,96007.41
2023-01-19T01:32:40.361Z,96008.00
2023-01-19T01:35:07.444Z,96009.19
2023-01-19T01:37:34.092Z,96010.53
2023-01-19T01:40:00.749Z,96023.38
2023-01-19T01:42:28.860Z,96021.34
2023-01-19T01:44:57.485Z,96035.75
2023-01-19T01:47:31.645Z,96023.00
2023-01-19T01:50:11.588Z,96031.34
2023-01-19T01:52:41.512Z,96028.59
2023-01-19T01:55:08.228Z,96021.34
2023-01-19T01:57:36.257Z,96029.19
2023-01-19T02:00:03.001Z,96029.56
2023-01-19T02:02:29.637Z,96037.44
2023-01-19T02:04:58.638Z,96035.97
2023-01-19T02:07:47.002Z,96029.91
2023-01-19T02:10:13.669Z,96033.16
2023-01-19T02:12:40.312Z,96031.38
2023-01-19T02:15:13.847Z,96023.38
2023-01-19T02:17:40.486Z,96036.22
2023-01-19T02:20:07.669Z,96028.25
2023-01-19T02:22:35.433Z,96036.59
2023-01-19T02:25:05.374Z,96039.69
2023-01-19T02:27:32.366Z,96041.47
2023-01-19T02:29:59.846Z,96040.44
2023-01-19T02:32:26.483Z,96033.84
2023-01-19T02:34:53.114Z,96039.81
2023-01-19T02:37:19.736Z,96038.97
2023-01-19T02:39:49.311Z,96034.00
2023-01-19T02:42:37.610Z,96030.53
2023-01-19T02:45:04.947Z,96033.03
2023-01-19T02:47:37.787Z,96038.97
2023-01-19T02:50:04.551Z,96038.84
2023-01-19T02:52:31.188Z,96039.81
2023-01-19T02:55:14.319Z,96043.13
2023-01-19T02:58:01.696Z,96036.84
2023-01-19T03:00:54.897Z,96048.03
2023-01-19T03:03:49.959Z,96045.88
2023-01-19T03:06:34.613Z,96037.56
2023-01-19T03:09:04.577Z,96037.91
2023-01-19T03:11:34.011Z,96048.28
2023-01-19T03:14:03.962Z,96044.47
2023-01-19T03:16:39.838Z,96040.53
2023-01-19T03:19:48.021Z,96047.47
2023-01-19T03:22:18.008Z,96048.50
2023-01-19T03:24:45.552Z,96056.38
2023-01-19T03:27:14.962Z,96063.03
2023-01-19T03:29:42.926Z,96045.88
2023-01-19T03:32:11.869Z,96059.78
2023-01-19T03:34:38.500Z,96056.81
2023-01-19T03:37:05.135Z,96058.56
2023-01-19T03:39:31.760Z,96059.78
2023-01-19T03:41:59.970Z,96054.66
2023-01-19T03:44:27.273Z,96065.59
2023-01-19T03:46:53.919Z,96066.22
2023-01-19T03:49:20.543Z,96061.94
2023-01-19T03:51:47.215Z,96071.09
2023-01-19T03:54:13.946Z,96074.78
2023-01-19T03:56:40.565Z,96073.38
2023-01-19T03:59:07.212Z,96069.94
2023-01-19T04:01:33.974Z,96074.81
2023-01-19T04:04:00.657Z,96077.69
2023-01-19T04:06:27.306Z,96083.50
2023-01-19T04:08:53.995Z,96082.44
2023-01-19T04:11:20.666Z,96085.06
2023-01-19T04:13:47.530Z,96089.59
2023-01-19T04:16:14.218Z,96088.16
2023-01-19T04:18:40.864Z,96096.97
2023-01-19T04:21:07.550Z,96098.63
2023-01-19T04:23:34.342Z,96091.81
2023-01-19T04:26:05.543Z,96083.38
2023-01-19T04:28:32.362Z,96086.22
2023-01-19T04:30:59.256Z,96088.03
2023-01-19T04:33:26.783Z,96090.13
2023-01-19T04:35:54.377Z,96099.03
2023-01-19T04:38:21.258Z,96089.13
2023-01-19T04:40:48.758Z,96099.72
2023-01-19T04:43:15.416Z,96103.09
2023-01-19T04:45:42.145Z,96097.50
2023-01-19T04:48:08.797Z,96103.88
2023-01-19T04:50:35.427Z,96115.34
2023-01-19T04:53:02.668Z,96112.13
2023-01-19T04:55:29.476Z,96111.41
2023-01-19T04:57:56.129Z,96106.63
2023-01-19T05:00:22.857Z,96106.59
2023-01-19T05:02:49.538Z,96105.75
2023-01-19T05:05:16.211Z,96106.72
2023-01-19T05:07:42.861Z,96109.06
2023-01-19T05:10:10.159Z,96107.84
2023-01-19T05:12:36.798Z,96106.63
2023-01-19T05:15:03.560Z,96111.97
2023-01-19T05:17:30.240Z,96114.91
2023-01-19T05:19:56.905Z,96111.81
2023-01-19T05:22:23.528Z,96112.03
2023-01-19T05:24:50.189Z,96121.75
2023-01-19T05:27:16.842Z,96116.69
2023-01-19T05:29:43.812Z,96113.91
2023-01-19T05:32:10.522Z,96122.59
2023-01-19T05:34:37.147Z,96123.50
2023-01-19T05:37:03.782Z,96126.72
2023-01-19T05:39:30.426Z,96128.03
2023-01-19T05:41:57.060Z,96124.88
2023-01-19T05:44:23.695Z,96123.09
2023-01-19T05:46:50.370Z,96128.59
2023-01-19T05:49:17.032Z,96139.19
2023-01-19T05:51:46.630Z,96135.50
2023-01-19T05:54:14.600Z,96139.19
2023-01-19T05:56:41.548Z,96138.91
2023-01-19T05:59:08.310Z,96136.41
2023-01-19T06:01:35.139Z,96135.06
2023-01-19T06:04:01.811Z,96138.97
2023-01-19T06:06:28.441Z,96140.13
2023-01-19T06:08:55.095Z,96155.94
2023-01-19T06:11:21.727Z,96147.38
2023-01-19T06:13:48.345Z,96157.34
2023-01-19T06:16:15.167Z,96154.09
2023-01-19T06:18:42.063Z,96148.97
2023-01-19T06:21:09.080Z,96157.16
2023-01-19T06:23:35.871Z,96149.81
2023-01-19T06:26:02.688Z,96164.53
2023-01-19T06:28:29.528Z,96162.75
2023-01-19T06:30:56.218Z,96168.84
2023-01-19T06:33:23.104Z,96164.06
2023-01-19T06:35:50.147Z,96165.59
2023-01-19T06:38:16.786Z,96169.66
2023-01-19T06:40:43.448Z,96161.94
2023-01-19T06:43:10.118Z,96167.16
2023-01-19T06:45:36.864Z,96166.44
2023-01-19T06:48:03.547Z,96175.13
2023-01-19T06:50:30.295Z,96171.06
2023-01-19T06:52:56.984Z,96164.16
2023-01-19T06:55:23.714Z,96174.81
2023-01-19T06:58:00.331Z,96173.53
2023-01-19T07:00:27.076Z,96184.72
2023-01-19T07:02:53.749Z,96179.16
2023-01-19T07:05:20.410Z,96191.19
2023-01-19T07:07:51.669Z,96193.50
2023-01-19T07:10:18.370Z,96185.78
2023-01-19T07:12:45.169Z,96187.97
2023-01-19T07:15:11.902Z,96186.00
2023-01-19T07:17:38.585Z,96193.44
2023-01-19T07:20:05.690Z,96192.53
2023-01-19T07:22:32.342Z,96187.19
2023-01-19T07:24:58.986Z,96191.59
2023-01-19T07:27:26.161Z,96191.72
2023-01-19T07:29:52.859Z,96182.13
2023-01-19T07:32:19.519Z,96192.81
2023-01-19T07:34:46.337Z,96192.81
2023-01-19T07:37:13.019Z,96193.31
2023-01-19T07:39:39.671Z,96194.69
2023-01-19T07:42:06.860Z,96195.44
2023-01-19T07:44:33.513Z,96193.53
2023-01-19T07:47:00.187Z,96200.75
2023-01-19T07:49:26.846Z,96200.63
2023-01-19T07:51:53.472Z,96195.75
2023-01-19T07:54:20.225Z,96201.47
2023-01-19T07:56:46.897Z,96199.03
2023-01-19T07:59:13.564Z,96200.38
2023-01-19T08:01:40.288Z,96196.00
2023-01-19T08:04:06.929Z,96199.19
2023-01-19T08:06:34.138Z,96201.41
2023-01-19T08:09:00.786Z,96216.25
2023-01-19T08:11:27.474Z,96215.50
2023-01-19T08:13:54.113Z,96213.22
2023-01-19T08:16:20.819Z,96218.25
2023-01-19T08:18:47.651Z,96218.28
2023-01-19T08:21:14.393Z,96223.06
2023-01-19T08:23:41.142Z,96211.53
2023-01-19T08:26:26.508Z,96216.16
2023-01-19T08:28:54.075Z,96214.19
2023-01-19T08:31:23.680Z,96208.16
2023-01-19T08:33:51.434Z,96204.78
2023-01-19T08:36:18.376Z,96216.44
2023-01-19T08:38:45.518Z,96217.56
2023-01-19T08:41:12.465Z,96218.72
2023-01-19T08:43:39.142Z,96223.84
2023-01-19T08:46:05.974Z,96217.44
2023-01-19T08:48:32.644Z,96218.84
2023-01-19T08:50:59.474Z,96215.78
2023-01-19T08:53:26.103Z,96225.31
2023-01-19T08:55:56.437Z,96215.00
2023-01-19T08:58:23.425Z,96210.78
2023-01-19T09:00:50.142Z,96210.19
2023-01-19T09:03:16.821Z,96208.41
2023-01-19T09:05:43.484Z,96210.19
2023-01-19T09:08:11.555Z,96216.88
2023-01-19T09:10:38.634Z,96216.34
2023-01-19T09:13:06.201Z,96215.47
2023-01-19T09:15:32.899Z,96212.72
2023-01-19T09:17:59.919Z,96223.13
2023-01-19T09:20:26.859Z,96218.81
2023-01-19T09:22:55.090Z,96231.28
2023-01-19T09:25:21.805Z,96227.88
2023-01-19T09:27:48.477Z,96234.94
2023-01-19T09:30:15.133Z,96233.44
2023-01-19T09:32:41.837Z,96237.22
2023-01-19T09:35:08.864Z,96236.59
2023-01-19T09:37:35.569Z,96231.59
2023-01-19T09:40:02.335Z,96238.44
2023-01-19T09:42:55.123Z,96250.25
2023-01-19T09:45:50.138Z,96243.38
2023-01-19T09:48:23.083Z,96248.31
2023-01-19T09:50:49.732Z,96246.47
2023-01-19T09:53:35.289Z,96249.94
2023-01-19T09:56:02.883Z,96253.31
2023-01-19T09:58:30.536Z,96258.72
2023-01-19T10:01:03.242Z,96261.63
2023-01-19T10:03:30.685Z,96260.63
2023-01-19T10:06:05.551Z,96263.66
2023-01-19T10:08:56.094Z,96265.16
2023-01-19T10:11:51.910Z,96270.38
2023-01-19T10:14:24.397Z,96271.25
2023-01-19T10:17:09.557Z,96271.25
2023-01-19T10:19:37.421Z,96266.75
2023-01-19T10:22:07.945Z,96261.00
2023-01-19T10:24:39.131Z,96255.19
2023-01-19T10:27:20.247Z,96262.00
2023-01-19T10:29:47.087Z,96260.31
2023-01-19T10:32:20.747Z,96259.16
2023-01-19T10:34:48.307Z,96256.84
2023-01-19T10:37:18.010Z,96268.47
2023-01-19T10:39:45.819Z,96264.47
2023-01-19T10:42:13.399Z,96262.31
2023-01-19T10:44:40.201Z,96246.38
2023-01-19T10:47:07.074Z,96254.78
2023-01-19T10:49:39.540Z,96232.88
2023-01-19T10:52:07.038Z,96248.25
2023-01-19T10:54:34.021Z,96243.41
2023-01-19T10:57:05.113Z,96245.41
2023-01-19T10:59:36.330Z,96237.28
2023-01-19T11:02:29.519Z,96232.88
2023-01-19T11:04:59.829Z,96246.75
2023-01-19T11:07:28.813Z,96237.19
2023-01-19T11:10:17.105Z,96231.44
2023-01-19T11:12:46.328Z,96223.34
2023-01-19T11:15:15.159Z,96230.56
2023-01-19T11:17:43.601Z,96230.94
2023-01-19T11:20:26.783Z,96227.41
2023-01-19T11:23:25.744Z,96222.69
2023-01-19T11:25:52.734Z,96219.56
2023-01-19T11:28:22.537Z,96213.50
2023-01-19T11:31:00.506Z,96208.38
2023-01-19T11:33:49.058Z,96211.03
2023-01-19T11:36:18.743Z,96204.63
2023-01-19T11:38:45.962Z,96205.88
2023-01-19T11:41:21.642Z,96193.41
2023-01-19T11:43:52.606Z,96197.81
2023-01-19T11:46:19.320Z,96188.97
2023-01-19T11:48:56.898Z,96188.09
2023-01-19T11:51:23.714Z,96190.50
2023-01-19T11:53:52.035Z,96195.09
2023-01-19T11:56:18.867Z,96194.59
2023-01-19T11:58:45.507Z,96196.41
2023-01-19T12:01:27.587Z,96195.84
2023-01-19T12:04:11.875Z,96191.38
2023-01-19T12:06:49.964Z,96184.88
2023-01-19T12:09:20.287Z,96174.03
2023-01-19T12:11:49.204Z,96177.25
2023-01-19T12:14:19.676Z,96178.38
2023-01-19T12:16:46.382Z,96177.25
2023-01-19T12:19:17.812Z,96173.34
2023-01-19T12:21:44.555Z,96176.22
2023-01-19T12:24:22.714Z,96176.63
2023-01-19T12:26:59.207Z,96168.47
2023-01-19T12:29:31.344Z,96167.22
2023-01-19T12:32:13.179Z,96165.91
2023-01-19T12:34:40.853Z,96172.69
2023-01-19T12:37:28.098Z,96172.13
2023-01-19T12:39:55.095Z,96163.84
2023-01-19T12:42:21.775Z,96168.34
2023-01-19T12:44:48.454Z,96171.44
2023-01-19T12:47:14.987Z,96162.69
2023-01-19T12:49:44.558Z,96165.66
2023-01-19T12:52:17.316Z,96162.97
2023-01-19T12:54:58.961Z,96165.63
2023-01-19T12:57:33.087Z,96168.16
2023-01-19T13:00:01.411Z,96163.34
2023-01-19T13:02:27.972Z,96166.25
2023-01-19T13:05:06.718Z,96164.13
2023-01-19T13:08:07.312Z,96153.34
2023-01-19T13:11:12.224Z,96156.50
2023-01-19T13:13:41.634Z,96158.31
2023-01-19T13:16:20.512Z,96165.25
2023-01-19T13:18:54.751Z,96159.13
2023-01-19T13:21:33.424Z,96152.50
2023-01-19T13:24:03.925Z,96154.38
2023-01-19T13:26:54.619Z,96153.63
2023-01-19T13:29:36.921Z,96150.16
2023-01-19T13:32:13.089Z,96141.25
2023-01-19T13:34:44.723Z,96146.38
2023-01-19T13:37:19.931Z,96145.66
2023-01-19T13:39:47.332Z,96147.78
2023-01-19T13:42:37.956Z,96146.25
2023-01-19T13:45:15.635Z,96134.91
2023-01-19T13:47:43.543Z,96143.41
2023-01-19T13:50:19.584Z,96139.31
2023-01-19T13:52:46.249Z,96147.38
2023-01-19T13:55:13.583Z,96135.31
2023-01-19T13:57:41.352Z,96127.38
2023-01-19T14:00:10.742Z,96140.19
2023-01-19T14:02:38.554Z,96141.34
2023-01-19T14:05:44.205Z,96136.88
2023-01-19T14:08:14.609Z,96130.75
2023-01-19T14:10:47.522Z,96129.41
2023-01-19T14:13:28.984Z,96119.94
2023-01-19T14:15:57.582Z,96127.44
2023-01-19T14:18:28.761Z,96127.81
2023-01-19T14:21:00.413Z,96125.78
2023-01-19T14:23:45.297Z,96125.78
2023-01-19T14:26:39.874Z,96114.38
2023-01-19T14:29:21.668Z,96118.75
2023-01-19T14:31:50.315Z,96114.28
2023-01-19T14:34:32.058Z,96122.22
2023-01-19T14:36:58.993Z,96117.00
2023-01-19T14:39:27.426Z,96113.53
2023-01-19T14:41:54.165Z,96110.72
2023-01-19T14:44:38.981Z,96100.69
2023-01-19T14:47:06.567Z,96105.44
2023-01-19T14:49:38.089Z,96099.91
2023-01-19T14:52:06.693Z,96105.44
2023-01-19T14:54:39.627Z,96103.19
2023-01-19T14:57:10.938Z,96095.63
2023-01-19T14:59:37.692Z,96093.59
2023-01-19T15:02:04.504Z,96091.78
2023-01-19T15:04:46.431Z,96091.09
2023-01-19T15:07:17.685Z,96091.38
2023-01-19T15:09:44.480Z,96085.38
2023-01-19T15:12:17.516Z,96095.00
2023-01-19T15:14:44.660Z,96092.19
2023-01-19T15:17:18.964Z,96092.91
2023-01-19T15:19:45.690Z,96092.97
2023-01-19T15:22:12.466Z,96087.25
2023-01-19T15:24:39.142Z,96088.16
2023-01-19T15:27:05.947Z,96088.59
2023-01-19T15:29:32.612Z,96083.13
2023-01-19T15:31:59.242Z,96086.03
2023-01-19T15:34:25.994Z,96071.66
2023-01-19T15:36:52.684Z,96073.78
2023-01-19T15:39:19.309Z,96068.81
2023-01-19T15:41:46.009Z,96073.56
2023-01-19T15:44:12.670Z,96075.13
2023-01-19T15:46:39.331Z,96068.28
2023-01-19T15:49:05.968Z,96068.88
2023-01-19T15:51:32.695Z,96069.16
2023-01-19T15:53:59.356Z,96068.41
2023-01-19T15:56:27.552Z,96060.03
2023-01-19T15:58:54.267Z,96067.38
2023-01-19T16:01:25.651Z,96063.63
2023-01-19T16:03:52.364Z,96055.72
2023-01-19T16:06:19.024Z,96063.00
2023-01-19T16:08:51.914Z,96066.47
2023-01-19T16:11:18.597Z,96053.47
2023-01-19T16:13:45.727Z,96060.16
2023-01-19T16:16:17.781Z,96056.03
2023-01-19T16:18:44.553Z,96056.88
2023-01-19T16:21:11.301Z,96052.81
2023-01-19T16:23:37.977Z,96050.19
2023-01-19T16:26:06.771Z,96050.19
2023-01-19T16:28:36.405Z,96049.09
2023-01-19T16:31:03.292Z,96046.19
2023-01-19T16:33:29.985Z,96044.53
2023-01-19T16:35:56.668Z,96047.56
2023-01-19T16:38:23.409Z,96043.00
2023-01-19T16:40:50.069Z,96036.47
2023-01-19T16:43:16.861Z,96038.28
2023-01-19T16:46:00.492Z,96037.59
2023-01-19T16:48:27.385Z,96038.28
2023-01-19T16:51:06.608Z,96039.09
2023-01-19T16:53:33.593Z,96021.63
2023-01-19T16:56:07.030Z,96027.88
2023-01-19T16:58:34.028Z,96031.03
2023-01-19T17:01:00.765Z,96029.66
2023-01-19T17:03:27.512Z,96028.81
2023-01-19T17:05:54.247Z,96030.63
2023-01-19T17:08:20.901Z,96030.91
2023-01-19T17:10:47.696Z,96032.97
2023-01-19T17:13:14.378Z,96036.16
2023-01-19T17:15:41.011Z,96039.06
2023-01-19T17:18:07.721Z,96040.19
2023-01-19T17:20:34.462Z,96040.88
2023-01-19T17:23:01.193Z,96033.91
2023-01-19T17:25:27.842Z,96037.25
2023-01-19T17:27:54.523Z,96036.38
2023-01-19T17:30:21.227Z,96047.06
2023-01-19T17:32:47.940Z,96047.31
2023-01-19T17:35:14.654Z,96044.69
2023-01-19T17:37:41.312Z,96041.38
2023-01-19T17:40:08.790Z,96037.31
2023-01-19T17:42:39.582Z,96023.06
2023-01-19T17:45:06.863Z,96030.97
2023-01-19T17:47:33.534Z,96022.06
2023-01-19T17:50:00.366Z,96032.56
2023-01-19T17:52:27.085Z,96033.06
2023-01-19T17:54:53.719Z,96026.69
2023-01-19T17:57:20.382Z,96027.91
2023-01-19T17:59:47.099Z,96022.34
2023-01-19T18:02:14.173Z,96018.59
2023-01-19T18:04:40.929Z,96020.78
2023-01-19T18:07:07.584Z,96015.75
2023-01-19T18:09:34.229Z,96012.84
2023-01-19T18:12:00.938Z,96017.97
2023-01-19T18:14:27.570Z,96001.94
2023-01-19T18:16:54.200Z,96002.06
2023-01-19T18:19:20.824Z,96012.84
2023-01-19T18:21:47.511Z,96012.84
2023-01-19T18:24:14.201Z,96001.50
2023-01-19T18:26:40.910Z,95999.91
2023-01-19T18:29:07.681Z,96002.78
2023-01-19T18:31:34.417Z,96001.00
2023-01-19T18:34:01.147Z,95999.97
2023-01-19T18:36:27.812Z,95996.28
2023-01-19T18:38:54.544Z,95998.13
2023-01-19T18:41:21.585Z,95999.47
2023-01-19T18:43:48.309Z,96000.38
2023-01-19T18:46:15.095Z,95993.75
2023-01-19T18:48:41.779Z,95994.22
2023-01-19T18:51:09.855Z,95990.97
2023-01-19T18:53:37.018Z,95992.34
2023-01-19T18:56:03.729Z,95987.03
2023-01-19T18:58:30.752Z,95985.88
2023-01-19T19:01:00.269Z,95992.03
2023-01-19T19:03:27.106Z,95994.84
2023-01-19T19:05:53.886Z,95988.44
2023-01-19T19:08:20.640Z,95980.50
2023-01-19T19:10:47.319Z,95982.59
2023-01-19T19:13:14.736Z,95989.03
2023-01-19T19:15:41.493Z,95979.69
2023-01-19T19:18:08.177Z,95985.69
2023-01-19T19:20:37.884Z,95979.03
2023-01-19T19:23:04.541Z,95974.78
2023-01-19T19:25:32.097Z,95966.44
2023-01-19T19:27:58.741Z,95973.28
2023-01-19T19:30:25.530Z,95959.59
2023-01-19T19:32:53.647Z,95955.66
2023-01-19T19:35:20.313Z,95958.75
2023-01-19T19:37:47.942Z,95964.47
2023-01-19T19:40:15.031Z,95971.13
2023-01-19T19:42:41.877Z,95960.19
2023-01-19T19:45:09.005Z,95967.78
2023-01-19T19:47:35.686Z,95968.50
2023-01-19T19:50:02.373Z,95965.88
2023-01-19T19:52:29.052Z,95966.81
2023-01-19T19:54:55.711Z,95966.81
2023-01-19T19:57:22.608Z,95977.28
2023-01-19T19:59:49.399Z,95976.81
2023-01-19T20:02:16.153Z,95991.72
2023-01-19T20:04:42.855Z,95990.28
2023-01-19T20:07:09.636Z,95984.47
2023-01-19T20:09:36.556Z,95987.53
2023-01-19T20:12:03.264Z,95983.50
2023-01-19T20:14:29.923Z,95986.25
2023-01-19T20:16:56.630Z,95987.22
2023-01-19T20:19:23.299Z,95981.63
2023-01-19T20:21:49.925Z,95979.31
2023-01-19T20:24:18.388Z,95972.03
2023-01-19T20:26:49.576Z,95983.50
2023-01-19T20:29:16.348Z,95986.94
2023-01-19T20:31:51.240Z,95985.50
2023-01-19T20:34:18.918Z,95991.81
2023-01-19T20:36:45.731Z,95988.25
2023-01-19T20:39:12.399Z,95983.00
2023-01-19T20:41:39.248Z,95979.22
2023-01-19T20:44:05.939Z,95988.00
2023-01-19T20:46:32.593Z,95987.41
2023-01-19T20:48:59.234Z,95995.78
2023-01-19T20:51:25.894Z,95993.25
2023-01-19T20:53:52.521Z,95995.78
2023-01-19T20:56:19.179Z,96004.44
2023-01-19T20:58:45.827Z,96011.44
2023-01-19T21:01:17.937Z,96008.09
2023-01-19T21:03:44.689Z,96009.41
2023-01-19T21:06:11.334Z,96012.63
2023-01-19T21:08:38.060Z,96009.69
2023-01-19T21:11:04.936Z,96007.16
2023-01-19T21:13:31.616Z,96019.44
2023-01-19T21:15:58.532Z,96020.16
2023-01-19T21:18:25.204Z,96021.47
2023-01-19T21:20:51.838Z,96019.56
2023-01-19T21:23:18.479Z,96017.75
2023-01-19T21:25:49.228Z,96027.91
2023-01-19T21:28:15.865Z,96013.59
2023-01-19T21:30:42.557Z,96024.88
2023-01-19T21:33:09.257Z,96026.91
2023-01-19T21:35:35.928Z,96027.03
2023-01-19T21:38:02.950Z,96023.94
2023-01-19T21:40:29.596Z,96021.69
2023-01-19T21:42:56.214Z,96023.00
2023-01-19T21:45:23.155Z,96024.78
2023-01-19T21:47:49.878Z,96029.91
2023-01-19T21:50:16.842Z,96039.66
2023-01-19T21:52:43.475Z,96042.88
2023-01-19T21:55:10.373Z,96043.94
2023-01-19T21:57:37.041Z,96046.22
2023-01-19T22:00:03.815Z,96052.50
2023-01-19T22:02:38.520Z,96051.34
2023-01-19T22:05:06.021Z,96060.34
2023-01-19T22:07:32.695Z,96071.91
2023-01-19T22:09:59.345Z,96076.03
2023-01-19T22:12:26.072Z,96078.53
2023-01-19T22:14:52.741Z,96084.97
2023-01-19T22:17:19.356Z,96096.63
2023-01-19T22:19:46.469Z,96083.13
2023-01-19T22:22:13.130Z,96086.47
2023-01-19T22:24:39.792Z,96094.81
2023-01-19T22:27:06.439Z,96098.81
2023-01-19T22:29:33.088Z,96091.75
2023-01-19T22:31:59.724Z,96102.00
2023-01-19T22:34:26.417Z,96109.78
2023-01-19T22:36:53.282Z,96098.00
2023-01-19T22:39:19.934Z,96097.78
2023-01-19T22:41:46.596Z,96093.81
2023-01-19T22:44:16.983Z,96095.41
2023-01-19T22:46:43.628Z,96099.31
2023-01-19T22:49:11.402Z,96102.53
2023-01-19T22:51:38.274Z,96092.59
2023-01-19T22:54:05.046Z,96102.50
2023-01-19T22:56:32.816Z,96103.38
2023-01-19T22:58:59.448Z,96095.53
2023-01-19T23:01:27.804Z,96107.78
2023-01-19T23:03:54.639Z,96115.63
2023-01-19T23:06:22.818Z,96109.31
2023-01-19T23:08:49.707Z,96109.50
2023-01-19T23:11:18.000Z,96107.66
2023-01-19T23:13:44.657Z,96110.41
2023-01-19T23:16:11.647Z,96119.00
2023-01-19T23:18:38.477Z,96116.28
2023-01-19T23:21:09.658Z,96124.66
2023-01-19T23:23:36.303Z,96121.56
2023-01-19T23:26:03.980Z,96113.19
2023-01-19T23:28:30.938Z,96116.25
2023-01-19T23:30:57.708Z,96117.22
2023-01-19T23:33:24.387Z,96119.22
2023-01-19T23:35:51.024Z,96113.81
2023-01-19T23:38:17.668Z,96114.16
2023-01-19T23:40:44.289Z,96114.16
2023-01-19T23:43:10.912Z,96118.16
2023-01-19T23:45:37.550Z,96115.00
2023-01-19T23:48:04.534Z,96117.84
2023-01-19T23:50:31.187Z,96125.75
2023-01-19T23:53:01.112Z,96117.72
2023-01-19T23:55:27.777Z,96118.06
2023-01-19T23:57:54.436Z,96114.47
